sensor_id;sensor_type;location;lat;lon;timestamp;P1;durP1;ratioP1;P2;durP2;ratioP2
50102;SDS011;35993;52.604;10.078;2022-10-31T00:01:21;11.68;;;6.95;;
50102;SDS011;35993;52.604;10.078;2022-10-31T00:03:49;12.85;;;7.05;;
50102;SDS011;35993;52.604;10.078;2022-10-31T00:06:15;16.35;;;6.70;;
50102;SDS011;35993;52.604;10.078;2022-10-31T00:08:44;9.98;;;6.28;;
50102;SDS011;35993;52.604;10.078;2022-10-31T00:11:16;14.02;;;7.18;;
50102;SDS011;35993;52.604;10.078;2022-10-31T00:13:42;14.35;;;6.70;;
50102;SDS011;35993;52.604;10.078;2022-10-31T00:16:18;11.52;;;6.47;;
50102;SDS011;35993;52.604;10.078;2022-10-31T00:18:49;14.50;;;7.00;;
50102;SDS011;35993;52.604;10.078;2022-10-31T00:21:16;15.70;;;7.05;;
50102;SDS011;35993;52.604;10.078;2022-10-31T00:23:41;13.15;;;6.53;;
50102;SDS011;35993;52.604;10.078;2022-10-31T00:26:07;14.23;;;6.90;;
50102;SDS011;35993;52.604;10.078;2022-10-31T00:28:33;15.45;;;7.05;;
50102;SDS011;35993;52.604;10.078;2022-10-31T00:31:02;18.35;;;7.28;;
50102;SDS011;35993;52.604;10.078;2022-10-31T00:33:30;14.00;;;7.10;;
50102;SDS011;35993;52.604;10.078;2022-10-31T00:35:56;18.38;;;6.07;;
50102;SDS011;35993;52.604;10.078;2022-10-31T00:38:22;13.05;;;6.78;;
50102;SDS011;35993;52.604;10.078;2022-10-31T00:40:47;13.55;;;6.70;;
50102;SDS011;35993;52.604;10.078;2022-10-31T00:43:13;12.63;;;6.38;;
50102;SDS011;35993;52.604;10.078;2022-10-31T00:45:40;15.48;;;7.25;;
50102;SDS011;35993;52.604;10.078;2022-10-31T00:48:06;13.85;;;7.20;;
50102;SDS011;35993;52.604;10.078;2022-10-31T00:50:32;16.55;;;7.05;;
50102;SDS011;35993;52.604;10.078;2022-10-31T00:52:58;16.45;;;6.63;;
50102;SDS011;35993;52.604;10.078;2022-10-31T00:55:24;15.10;;;7.38;;
50102;SDS011;35993;52.604;10.078;2022-10-31T00:57:50;11.93;;;6.63;;
50102;SDS011;35993;52.604;10.078;2022-10-31T01:00:16;13.73;;;7.03;;
50102;SDS011;35993;52.604;10.078;2022-10-31T01:02:42;12.07;;;6.50;;
50102;SDS011;35993;52.604;10.078;2022-10-31T01:05:08;13.50;;;7.03;;
50102;SDS011;35993;52.604;10.078;2022-10-31T01:07:35;12.50;;;6.82;;
50102;SDS011;35993;52.604;10.078;2022-10-31T01:10:02;18.15;;;7.22;;
50102;SDS011;35993;52.604;10.078;2022-10-31T01:12:28;13.00;;;6.90;;
50102;SDS011;35993;52.604;10.078;2022-10-31T01:14:55;14.07;;;7.35;;
50102;SDS011;35993;52.604;10.078;2022-10-31T01:17:21;18.13;;;7.30;;
50102;SDS011;35993;52.604;10.078;2022-10-31T01:19:46;18.83;;;7.55;;
50102;SDS011;35993;52.604;10.078;2022-10-31T01:22:12;17.77;;;7.57;;
50102;SDS011;35993;52.604;10.078;2022-10-31T01:24:37;14.43;;;7.82;;
50102;SDS011;35993;52.604;10.078;2022-10-31T01:27:03;15.85;;;8.23;;
50102;SDS011;35993;52.604;10.078;2022-10-31T01:29:32;15.98;;;7.90;;
50102;SDS011;35993;52.604;10.078;2022-10-31T01:31:58;19.83;;;9.32;;
50102;SDS011;35993;52.604;10.078;2022-10-31T01:34:24;17.48;;;8.50;;
50102;SDS011;35993;52.604;10.078;2022-10-31T01:36:50;21.10;;;9.25;;
50102;SDS011;35993;52.604;10.078;2022-10-31T01:39:17;17.65;;;8.65;;
50102;SDS011;35993;52.604;10.078;2022-10-31T01:41:48;15.82;;;9.25;;
50102;SDS011;35993;52.604;10.078;2022-10-31T01:46:49;15.85;;;8.55;;
50102;SDS011;35993;52.604;10.078;2022-10-31T01:49:29;14.10;;;8.70;;
50102;SDS011;35993;52.604;10.078;2022-10-31T01:52:01;19.63;;;9.40;;
50102;SDS011;35993;52.604;10.078;2022-10-31T01:57:01;18.17;;;8.82;;
50102;SDS011;35993;52.604;10.078;2022-10-31T01:59:30;15.95;;;8.90;;
50102;SDS011;35993;52.604;10.078;2022-10-31T02:02:03;17.98;;;8.68;;
50102;SDS011;35993;52.604;10.078;2022-10-31T02:04:29;19.85;;;10.45;;
50102;SDS011;35993;52.604;10.078;2022-10-31T02:07:06;23.08;;;9.55;;
50102;SDS011;35993;52.604;10.078;2022-10-31T02:09:39;20.10;;;10.45;;
50102;SDS011;35993;52.604;10.078;2022-10-31T02:12:06;21.08;;;10.13;;
50102;SDS011;35993;52.604;10.078;2022-10-31T02:14:35;22.30;;;10.48;;
50102;SDS011;35993;52.604;10.078;2022-10-31T02:17:25;22.92;;;10.48;;
50102;SDS011;35993;52.604;10.078;2022-10-31T02:19:53;19.15;;;9.63;;
50102;SDS011;35993;52.604;10.078;2022-10-31T02:22:48;17.25;;;10.90;;
50102;SDS011;35993;52.604;10.078;2022-10-31T02:25:54;23.60;;;11.77;;
50102;SDS011;35993;52.604;10.078;2022-10-31T02:28:51;23.88;;;12.40;;
50102;SDS011;35993;52.604;10.078;2022-10-31T02:31:29;23.00;;;12.38;;
50102;SDS011;35993;52.604;10.078;2022-10-31T02:34:16;24.85;;;12.75;;
50102;SDS011;35993;52.604;10.078;2022-10-31T02:36:58;24.48;;;12.45;;
50102;SDS011;35993;52.604;10.078;2022-10-31T02:39:36;24.65;;;12.73;;
50102;SDS011;35993;52.604;10.078;2022-10-31T02:44:53;25.15;;;12.55;;
50102;SDS011;35993;52.604;10.078;2022-10-31T02:47:29;25.98;;;12.55;;
50102;SDS011;35993;52.604;10.078;2022-10-31T02:50:12;26.58;;;13.02;;
50102;SDS011;35993;52.604;10.078;2022-10-31T02:52:42;21.90;;;12.55;;
50102;SDS011;35993;52.604;10.078;2022-10-31T02:58:09;27.48;;;12.13;;
50102;SDS011;35993;52.604;10.078;2022-10-31T03:06:35;23.42;;;12.93;;
50102;SDS011;35993;52.604;10.078;2022-10-31T03:11:58;25.00;;;12.57;;
50102;SDS011;35993;52.604;10.078;2022-10-31T03:14:44;26.50;;;14.32;;
50102;SDS011;35993;52.604;10.078;2022-10-31T03:17:21;29.10;;;13.80;;
50102;SDS011;35993;52.604;10.078;2022-10-31T03:19:57;23.05;;;12.85;;
50102;SDS011;35993;52.604;10.078;2022-10-31T03:22:27;24.48;;;13.75;;
50102;SDS011;35993;52.604;10.078;2022-10-31T03:24:58;25.73;;;13.85;;
50102;SDS011;35993;52.604;10.078;2022-10-31T03:27:27;24.20;;;12.68;;
50102;SDS011;35993;52.604;10.078;2022-10-31T03:29:59;20.80;;;12.20;;
50102;SDS011;35993;52.604;10.078;2022-10-31T03:32:32;25.38;;;12.88;;
50102;SDS011;35993;52.604;10.078;2022-10-31T03:35:03;23.52;;;12.20;;
50102;SDS011;35993;52.604;10.078;2022-10-31T03:37:32;24.35;;;12.27;;
50102;SDS011;35993;52.604;10.078;2022-10-31T03:40:01;20.83;;;11.75;;
50102;SDS011;35993;52.604;10.078;2022-10-31T03:42:31;24.10;;;12.48;;
50102;SDS011;35993;52.604;10.078;2022-10-31T03:45:06;24.13;;;13.10;;
50102;SDS011;35993;52.604;10.078;2022-10-31T03:47:59;28.05;;;13.73;;
50102;SDS011;35993;52.604;10.078;2022-10-31T03:50:27;26.50;;;13.60;;
50102;SDS011;35993;52.604;10.078;2022-10-31T03:53:08;22.65;;;12.82;;
50102;SDS011;35993;52.604;10.078;2022-10-31T03:55:43;26.48;;;14.13;;
50102;SDS011;35993;52.604;10.078;2022-10-31T03:59:02;27.77;;;13.70;;
50102;SDS011;35993;52.604;10.078;2022-10-31T04:01:31;29.83;;;13.15;;
50102;SDS011;35993;52.604;10.078;2022-10-31T04:04:23;23.73;;;13.23;;
50102;SDS011;35993;52.604;10.078;2022-10-31T04:06:51;23.10;;;12.63;;
50102;SDS011;35993;52.604;10.078;2022-10-31T04:09:18;22.98;;;12.82;;
50102;SDS011;35993;52.604;10.078;2022-10-31T04:11:50;23.15;;;12.60;;
50102;SDS011;35993;52.604;10.078;2022-10-31T04:14:56;23.33;;;12.85;;
50102;SDS011;35993;52.604;10.078;2022-10-31T04:17:23;27.00;;;13.20;;
50102;SDS011;35993;52.604;10.078;2022-10-31T04:19:54;25.38;;;13.15;;
50102;SDS011;35993;52.604;10.078;2022-10-31T04:22:19;27.63;;;12.32;;
50102;SDS011;35993;52.604;10.078;2022-10-31T04:24:45;23.45;;;13.82;;
50102;SDS011;35993;52.604;10.078;2022-10-31T04:27:13;22.58;;;12.90;;
50102;SDS011;35993;52.604;10.078;2022-10-31T04:29:39;21.98;;;12.98;;
50102;SDS011;35993;52.604;10.078;2022-10-31T04:32:04;26.45;;;14.00;;
50102;SDS011;35993;52.604;10.078;2022-10-31T04:34:30;25.33;;;14.40;;
50102;SDS011;35993;52.604;10.078;2022-10-31T04:36:56;26.05;;;14.00;;
50102;SDS011;35993;52.604;10.078;2022-10-31T04:39:21;29.48;;;14.50;;
50102;SDS011;35993;52.604;10.078;2022-10-31T04:41:59;24.17;;;14.00;;
50102;SDS011;35993;52.604;10.078;2022-10-31T04:44:24;23.98;;;14.02;;
50102;SDS011;35993;52.604;10.078;2022-10-31T04:46:52;27.95;;;14.55;;
50102;SDS011;35993;52.604;10.078;2022-10-31T04:49:18;30.52;;;16.45;;
50102;SDS011;35993;52.604;10.078;2022-10-31T04:51:43;24.70;;;14.93;;
50102;SDS011;35993;52.604;10.078;2022-10-31T04:54:09;26.42;;;14.60;;
50102;SDS011;35993;52.604;10.078;2022-10-31T04:57:01;34.17;;;15.98;;
50102;SDS011;35993;52.604;10.078;2022-10-31T04:59:27;31.42;;;16.15;;
50102;SDS011;35993;52.604;10.078;2022-10-31T05:01:53;33.95;;;16.90;;
50102;SDS011;35993;52.604;10.078;2022-10-31T05:04:41;29.55;;;14.80;;
50102;SDS011;35993;52.604;10.078;2022-10-31T05:07:07;29.50;;;15.55;;
50102;SDS011;35993;52.604;10.078;2022-10-31T05:09:32;30.42;;;15.48;;
50102;SDS011;35993;52.604;10.078;2022-10-31T05:11:58;28.95;;;14.75;;
50102;SDS011;35993;52.604;10.078;2022-10-31T05:14:57;31.55;;;14.32;;
50102;SDS011;35993;52.604;10.078;2022-10-31T05:17:41;23.60;;;13.32;;
50102;SDS011;35993;52.604;10.078;2022-10-31T05:20:26;28.05;;;14.35;;
50102;SDS011;35993;52.604;10.078;2022-10-31T05:23:31;28.45;;;15.18;;
50102;SDS011;35993;52.604;10.078;2022-10-31T05:25:58;29.90;;;15.65;;
50102;SDS011;35993;52.604;10.078;2022-10-31T05:28:24;32.50;;;15.93;;
50102;SDS011;35993;52.604;10.078;2022-10-31T05:30:49;20.55;;;13.50;;
50102;SDS011;35993;52.604;10.078;2022-10-31T05:33:15;24.02;;;13.75;;
50102;SDS011;35993;52.604;10.078;2022-10-31T05:36:13;23.05;;;13.15;;
50102;SDS011;35993;52.604;10.078;2022-10-31T05:38:49;24.80;;;13.65;;
50102;SDS011;35993;52.604;10.078;2022-10-31T05:41:41;21.40;;;13.23;;
50102;SDS011;35993;52.604;10.078;2022-10-31T05:44:19;25.92;;;13.93;;
50102;SDS011;35993;52.604;10.078;2022-10-31T05:46:55;24.70;;;14.15;;
50102;SDS011;35993;52.604;10.078;2022-10-31T05:49:39;23.42;;;13.55;;
50102;SDS011;35993;52.604;10.078;2022-10-31T05:52:34;26.58;;;14.35;;
50102;SDS011;35993;52.604;10.078;2022-10-31T05:55:08;23.67;;;12.48;;
50102;SDS011;35993;52.604;10.078;2022-10-31T05:57:35;21.23;;;12.85;;
50102;SDS011;35993;52.604;10.078;2022-10-31T06:00:00;24.42;;;14.00;;
50102;SDS011;35993;52.604;10.078;2022-10-31T06:02:27;22.30;;;12.43;;
50102;SDS011;35993;52.604;10.078;2022-10-31T06:05:18;18.35;;;11.55;;
50102;SDS011;35993;52.604;10.078;2022-10-31T06:07:45;19.38;;;10.93;;
50102;SDS011;35993;52.604;10.078;2022-10-31T06:10:10;18.55;;;10.85;;
50102;SDS011;35993;52.604;10.078;2022-10-31T06:12:37;17.50;;;10.95;;
50102;SDS011;35993;52.604;10.078;2022-10-31T06:15:25;20.15;;;11.35;;
50102;SDS011;35993;52.604;10.078;2022-10-31T06:18:02;28.17;;;12.23;;
50102;SDS011;35993;52.604;10.078;2022-10-31T06:20:34;24.23;;;12.82;;
50102;SDS011;35993;52.604;10.078;2022-10-31T06:23:02;24.77;;;12.85;;
50102;SDS011;35993;52.604;10.078;2022-10-31T06:25:30;28.38;;;11.68;;
50102;SDS011;35993;52.604;10.078;2022-10-31T06:27:55;22.98;;;12.60;;
50102;SDS011;35993;52.604;10.078;2022-10-31T06:30:28;33.42;;;12.18;;
50102;SDS011;35993;52.604;10.078;2022-10-31T06:32:54;32.30;;;12.27;;
50102;SDS011;35993;52.604;10.078;2022-10-31T06:35:20;37.97;;;13.95;;
50102;SDS011;35993;52.604;10.078;2022-10-31T06:37:50;34.60;;;13.13;;
50102;SDS011;35993;52.604;10.078;2022-10-31T06:40:29;39.88;;;14.05;;
50102;SDS011;35993;52.604;10.078;2022-10-31T06:43:19;44.42;;;15.75;;
50102;SDS011;35993;52.604;10.078;2022-10-31T06:45:45;39.00;;;17.20;;
50102;SDS011;35993;52.604;10.078;2022-10-31T06:48:20;41.45;;;17.10;;
50102;SDS011;35993;52.604;10.078;2022-10-31T06:51:15;49.20;;;16.83;;
50102;SDS011;35993;52.604;10.078;2022-10-31T06:53:41;42.00;;;16.83;;
50102;SDS011;35993;52.604;10.078;2022-10-31T06:56:27;35.55;;;16.25;;
50102;SDS011;35993;52.604;10.078;2022-10-31T06:58:55;37.13;;;16.48;;
50102;SDS011;35993;52.604;10.078;2022-10-31T07:01:40;41.58;;;17.45;;
50102;SDS011;35993;52.604;10.078;2022-10-31T07:04:07;37.30;;;17.75;;
50102;SDS011;35993;52.604;10.078;2022-10-31T07:07:12;40.95;;;17.13;;
50102;SDS011;35993;52.604;10.078;2022-10-31T07:09:38;40.80;;;16.02;;
50102;SDS011;35993;52.604;10.078;2022-10-31T07:12:05;32.80;;;17.40;;
50102;SDS011;35993;52.604;10.078;2022-10-31T07:14:34;39.47;;;17.05;;
50102;SDS011;35993;52.604;10.078;2022-10-31T07:17:00;34.05;;;17.23;;
50102;SDS011;35993;52.604;10.078;2022-10-31T07:19:32;38.53;;;17.20;;
50102;SDS011;35993;52.604;10.078;2022-10-31T07:22:03;38.45;;;17.33;;
50102;SDS011;35993;52.604;10.078;2022-10-31T07:24:29;37.92;;;17.45;;
50102;SDS011;35993;52.604;10.078;2022-10-31T07:27:14;38.83;;;16.67;;
50102;SDS011;35993;52.604;10.078;2022-10-31T07:29:43;36.80;;;18.15;;
50102;SDS011;35993;52.604;10.078;2022-10-31T07:32:10;31.52;;;16.92;;
50102;SDS011;35993;52.604;10.078;2022-10-31T07:34:41;38.85;;;18.38;;
50102;SDS011;35993;52.604;10.078;2022-10-31T07:38:06;36.03;;;18.15;;
50102;SDS011;35993;52.604;10.078;2022-10-31T07:40:33;38.05;;;17.80;;
50102;SDS011;35993;52.604;10.078;2022-10-31T07:43:12;35.85;;;18.13;;
50102;SDS011;35993;52.604;10.078;2022-10-31T07:46:01;38.00;;;19.13;;
50102;SDS011;35993;52.604;10.078;2022-10-31T07:48:36;36.30;;;18.13;;
50102;SDS011;35993;52.604;10.078;2022-10-31T07:51:20;37.70;;;18.58;;
50102;SDS011;35993;52.604;10.078;2022-10-31T07:54:14;34.28;;;18.58;;
50102;SDS011;35993;52.604;10.078;2022-10-31T07:56:43;36.78;;;18.90;;
50102;SDS011;35993;52.604;10.078;2022-10-31T07:59:08;35.90;;;18.58;;
50102;SDS011;35993;52.604;10.078;2022-10-31T08:01:34;33.70;;;18.75;;
50102;SDS011;35993;52.604;10.078;2022-10-31T08:04:32;35.45;;;19.27;;
50102;SDS011;35993;52.604;10.078;2022-10-31T08:07:23;34.05;;;18.13;;
50102;SDS011;35993;52.604;10.078;2022-10-31T08:09:55;35.30;;;19.20;;
50102;SDS011;35993;52.604;10.078;2022-10-31T08:12:25;41.50;;;19.38;;
50102;SDS011;35993;52.604;10.078;2022-10-31T08:14:52;35.42;;;19.15;;
50102;SDS011;35993;52.604;10.078;2022-10-31T08:17:21;35.92;;;19.25;;
50102;SDS011;35993;52.604;10.078;2022-10-31T08:19:52;36.95;;;19.65;;
50102;SDS011;35993;52.604;10.078;2022-10-31T08:22:22;35.08;;;19.15;;
50102;SDS011;35993;52.604;10.078;2022-10-31T08:24:48;34.50;;;20.23;;
50102;SDS011;35993;52.604;10.078;2022-10-31T08:27:13;37.20;;;20.00;;
50102;SDS011;35993;52.604;10.078;2022-10-31T08:30:08;36.72;;;20.10;;
50102;SDS011;35993;52.604;10.078;2022-10-31T08:32:36;38.15;;;18.80;;
50102;SDS011;35993;52.604;10.078;2022-10-31T08:35:21;36.25;;;20.35;;
50102;SDS011;35993;52.604;10.078;2022-10-31T08:38:31;43.85;;;22.35;;
50102;SDS011;35993;52.604;10.078;2022-10-31T08:40:57;39.45;;;20.02;;
50102;SDS011;35993;52.604;10.078;2022-10-31T08:43:25;43.47;;;21.90;;
50102;SDS011;35993;52.604;10.078;2022-10-31T08:45:50;39.00;;;23.20;;
50102;SDS011;35993;52.604;10.078;2022-10-31T08:48:25;50.97;;;26.67;;
50102;SDS011;35993;52.604;10.078;2022-10-31T08:50:55;49.28;;;27.00;;
50102;SDS011;35993;52.604;10.078;2022-10-31T08:53:23;47.78;;;26.40;;
50102;SDS011;35993;52.604;10.078;2022-10-31T08:56:01;44.03;;;24.67;;
50102;SDS011;35993;52.604;10.078;2022-10-31T08:58:27;43.63;;;22.55;;
50102;SDS011;35993;52.604;10.078;2022-10-31T09:00:58;40.08;;;22.48;;
50102;SDS011;35993;52.604;10.078;2022-10-31T09:03:26;38.58;;;20.83;;
50102;SDS011;35993;52.604;10.078;2022-10-31T09:05:54;36.55;;;20.42;;
50102;SDS011;35993;52.604;10.078;2022-10-31T09:08:26;38.00;;;20.38;;
50102;SDS011;35993;52.604;10.078;2022-10-31T09:10:55;43.97;;;22.63;;
50102;SDS011;35993;52.604;10.078;2022-10-31T09:17:01;39.05;;;20.10;;
50102;SDS011;35993;52.604;10.078;2022-10-31T09:19:42;41.35;;;21.23;;
50102;SDS011;35993;52.604;10.078;2022-10-31T09:22:07;42.85;;;21.35;;
50102;SDS011;35993;52.604;10.078;2022-10-31T09:24:33;39.25;;;21.90;;
50102;SDS011;35993;52.604;10.078;2022-10-31T09:27:00;42.22;;;22.85;;
50102;SDS011;35993;52.604;10.078;2022-10-31T09:29:26;43.20;;;21.95;;
50102;SDS011;35993;52.604;10.078;2022-10-31T09:31:56;40.70;;;21.42;;
50102;SDS011;35993;52.604;10.078;2022-10-31T09:34:27;43.20;;;22.40;;
50102;SDS011;35993;52.604;10.078;2022-10-31T09:37:04;47.65;;;23.63;;
50102;SDS011;35993;52.604;10.078;2022-10-31T09:39:48;43.25;;;21.92;;
50102;SDS011;35993;52.604;10.078;2022-10-31T09:42:36;42.72;;;22.33;;
50102;SDS011;35993;52.604;10.078;2022-10-31T09:45:14;39.95;;;21.63;;
50102;SDS011;35993;52.604;10.078;2022-10-31T09:51:17;41.08;;;20.77;;
50102;SDS011;35993;52.604;10.078;2022-10-31T09:54:18;32.05;;;16.88;;
50102;SDS011;35993;52.604;10.078;2022-10-31T09:57:10;37.60;;;17.85;;
50102;SDS011;35993;52.604;10.078;2022-10-31T09:59:41;40.45;;;18.25;;
50102;SDS011;35993;52.604;10.078;2022-10-31T10:05:04;40.33;;;17.98;;
50102;SDS011;35993;52.604;10.078;2022-10-31T10:30:47;37.05;;;18.13;;
50102;SDS011;35993;52.604;10.078;2022-10-31T10:33:24;32.13;;;16.73;;
50102;SDS011;35993;52.604;10.078;2022-10-31T10:35:57;35.10;;;17.50;;
50102;SDS011;35993;52.604;10.078;2022-10-31T10:40:59;35.70;;;16.70;;
50102;SDS011;35993;52.604;10.078;2022-10-31T10:46:04;30.83;;;15.82;;
50102;SDS011;35993;52.604;10.078;2022-10-31T10:49:04;32.55;;;15.73;;
50102;SDS011;35993;52.604;10.078;2022-10-31T10:51:38;32.03;;;16.77;;
50102;SDS011;35993;52.604;10.078;2022-10-31T11:00:14;31.50;;;16.15;;
50102;SDS011;35993;52.604;10.078;2022-10-31T11:02:43;31.95;;;15.32;;
50102;SDS011;35993;52.604;10.078;2022-10-31T11:05:22;34.67;;;15.30;;
50102;SDS011;35993;52.604;10.078;2022-10-31T11:07:48;29.25;;;15.30;;
50102;SDS011;35993;52.604;10.078;2022-10-31T11:10:14;33.22;;;16.08;;
50102;SDS011;35993;52.604;10.078;2022-10-31T11:12:41;31.42;;;14.32;;
50102;SDS011;35993;52.604;10.078;2022-10-31T11:15:19;29.85;;;14.98;;
50102;SDS011;35993;52.604;10.078;2022-10-31T11:17:54;29.48;;;13.93;;
50102;SDS011;35993;52.604;10.078;2022-10-31T11:23:02;30.63;;;14.20;;
50102;SDS011;35993;52.604;10.078;2022-10-31T11:25:30;30.67;;;14.70;;
50102;SDS011;35993;52.604;10.078;2022-10-31T11:28:02;27.60;;;14.18;;
50102;SDS011;35993;52.604;10.078;2022-10-31T11:30:30;29.77;;;14.57;;
50102;SDS011;35993;52.604;10.078;2022-10-31T11:33:00;27.52;;;14.23;;
50102;SDS011;35993;52.604;10.078;2022-10-31T11:35:26;31.42;;;14.90;;
50102;SDS011;35993;52.604;10.078;2022-10-31T11:38:15;26.65;;;14.50;;
50102;SDS011;35993;52.604;10.078;2022-10-31T11:46:47;31.35;;;15.05;;
50102;SDS011;35993;52.604;10.078;2022-10-31T11:51:55;27.15;;;13.30;;
50102;SDS011;35993;52.604;10.078;2022-10-31T11:54:30;26.77;;;12.50;;
50102;SDS011;35993;52.604;10.078;2022-10-31T11:57:04;26.17;;;14.30;;
50102;SDS011;35993;52.604;10.078;2022-10-31T11:59:50;25.77;;;13.63;;
50102;SDS011;35993;52.604;10.078;2022-10-31T12:02:18;26.27;;;13.10;;
50102;SDS011;35993;52.604;10.078;2022-10-31T12:04:46;25.38;;;13.63;;
50102;SDS011;35993;52.604;10.078;2022-10-31T12:07:34;29.33;;;14.90;;
50102;SDS011;35993;52.604;10.078;2022-10-31T12:10:01;29.42;;;14.82;;
50102;SDS011;35993;52.604;10.078;2022-10-31T12:15:30;28.13;;;13.95;;
50102;SDS011;35993;52.604;10.078;2022-10-31T12:23:32;26.20;;;14.15;;
50102;SDS011;35993;52.604;10.078;2022-10-31T12:26:12;27.30;;;13.45;;
50102;SDS011;35993;52.604;10.078;2022-10-31T12:29:02;32.58;;;14.45;;
50102;SDS011;35993;52.604;10.078;2022-10-31T12:34:26;30.00;;;13.82;;
50102;SDS011;35993;52.604;10.078;2022-10-31T12:37:22;31.10;;;13.60;;
50102;SDS011;35993;52.604;10.078;2022-10-31T12:53:37;26.65;;;12.00;;
50102;SDS011;35993;52.604;10.078;2022-10-31T12:58:34;28.52;;;12.45;;
50102;SDS011;35993;52.604;10.078;2022-10-31T13:01:08;30.35;;;13.15;;
50102;SDS011;35993;52.604;10.078;2022-10-31T13:03:44;29.02;;;13.15;;
50102;SDS011;35993;52.604;10.078;2022-10-31T13:06:18;32.05;;;13.27;;
50102;SDS011;35993;52.604;10.078;2022-10-31T13:08:51;25.13;;;12.90;;
50102;SDS011;35993;52.604;10.078;2022-10-31T13:11:25;23.92;;;11.98;;
50102;SDS011;35993;52.604;10.078;2022-10-31T13:13:58;28.55;;;11.95;;
50102;SDS011;35993;52.604;10.078;2022-10-31T13:16:33;25.17;;;11.63;;
50102;SDS011;35993;52.604;10.078;2022-10-31T13:21:53;25.08;;;12.30;;
50102;SDS011;35993;52.604;10.078;2022-10-31T13:24:34;26.88;;;12.02;;
50102;SDS011;35993;52.604;10.078;2022-10-31T13:27:40;23.00;;;11.82;;
50102;SDS011;35993;52.604;10.078;2022-10-31T13:32:43;26.73;;;11.43;;
50102;SDS011;35993;52.604;10.078;2022-10-31T13:35:18;23.80;;;11.27;;
50102;SDS011;35993;52.604;10.078;2022-10-31T13:38:03;24.42;;;12.02;;
50102;SDS011;35993;52.604;10.078;2022-10-31T13:46:39;22.10;;;10.68;;
50102;SDS011;35993;52.604;10.078;2022-10-31T13:52:16;23.48;;;11.07;;
50102;SDS011;35993;52.604;10.078;2022-10-31T13:55:33;22.58;;;11.73;;
50102;SDS011;35993;52.604;10.078;2022-10-31T14:01:19;23.98;;;10.93;;
50102;SDS011;35993;52.604;10.078;2022-10-31T14:03:47;21.92;;;10.82;;
50102;SDS011;35993;52.604;10.078;2022-10-31T14:06:36;23.48;;;11.52;;
50102;SDS011;35993;52.604;10.078;2022-10-31T14:14:57;25.70;;;11.68;;
50102;SDS011;35993;52.604;10.078;2022-10-31T14:17:57;22.27;;;11.20;;
50102;SDS011;35993;52.604;10.078;2022-10-31T14:23:37;27.73;;;12.25;;
50102;SDS011;35993;52.604;10.078;2022-10-31T14:28:49;21.42;;;11.20;;
50102;SDS011;35993;52.604;10.078;2022-10-31T14:31:27;27.77;;;12.50;;
50102;SDS011;35993;52.604;10.078;2022-10-31T14:39:30;25.13;;;11.88;;
50102;SDS011;35993;52.604;10.078;2022-10-31T14:42:13;25.67;;;11.85;;
50102;SDS011;35993;52.604;10.078;2022-10-31T14:47:53;25.00;;;11.40;;
50102;SDS011;35993;52.604;10.078;2022-10-31T14:53:04;23.70;;;10.70;;
50102;SDS011;35993;52.604;10.078;2022-10-31T14:55:32;22.13;;;10.95;;
50102;SDS011;35993;52.604;10.078;2022-10-31T14:58:03;19.20;;;10.27;;
50102;SDS011;35993;52.604;10.078;2022-10-31T15:00:32;21.13;;;11.07;;
50102;SDS011;35993;52.604;10.078;2022-10-31T15:05:41;22.17;;;10.15;;
50102;SDS011;35993;52.604;10.078;2022-10-31T15:16:31;20.48;;;10.10;;
50102;SDS011;35993;52.604;10.078;2022-10-31T15:19:04;20.65;;;10.32;;
50102;SDS011;35993;52.604;10.078;2022-10-31T15:21:32;22.52;;;10.85;;
50102;SDS011;35993;52.604;10.078;2022-10-31T15:24:13;22.52;;;10.45;;
50102;SDS011;35993;52.604;10.078;2022-10-31T15:26:44;19.83;;;10.83;;
50102;SDS011;35993;52.604;10.078;2022-10-31T15:29:13;20.15;;;9.35;;
50102;SDS011;35993;52.604;10.078;2022-10-31T15:31:51;18.67;;;9.43;;
50102;SDS011;35993;52.604;10.078;2022-10-31T15:34:39;20.52;;;10.30;;
50102;SDS011;35993;52.604;10.078;2022-10-31T15:37:10;18.70;;;9.10;;
50102;SDS011;35993;52.604;10.078;2022-10-31T15:39:37;22.60;;;10.23;;
50102;SDS011;35993;52.604;10.078;2022-10-31T15:42:03;21.58;;;9.85;;
50102;SDS011;35993;52.604;10.078;2022-10-31T15:52:28;25.70;;;11.95;;
50102;SDS011;35993;52.604;10.078;2022-10-31T15:55:02;21.80;;;11.65;;
50102;SDS011;35993;52.604;10.078;2022-10-31T15:57:31;22.80;;;10.57;;
50102;SDS011;35993;52.604;10.078;2022-10-31T15:59:57;25.98;;;10.93;;
50102;SDS011;35993;52.604;10.078;2022-10-31T16:02:24;19.00;;;10.32;;
50102;SDS011;35993;52.604;10.078;2022-10-31T16:07:26;21.05;;;10.13;;
50102;SDS011;35993;52.604;10.078;2022-10-31T16:12:21;17.52;;;9.60;;
50102;SDS011;35993;52.604;10.078;2022-10-31T16:14:49;21.65;;;9.77;;
50102;SDS011;35993;52.604;10.078;2022-10-31T16:17:31;19.75;;;9.63;;
50102;SDS011;35993;52.604;10.078;2022-10-31T16:20:01;17.80;;;9.50;;
50102;SDS011;35993;52.604;10.078;2022-10-31T16:22:42;22.45;;;9.18;;
50102;SDS011;35993;52.604;10.078;2022-10-31T16:25:15;17.80;;;9.40;;
50102;SDS011;35993;52.604;10.078;2022-10-31T16:27:49;21.05;;;9.73;;
50102;SDS011;35993;52.604;10.078;2022-10-31T16:30:30;21.73;;;9.63;;
50102;SDS011;35993;52.604;10.078;2022-10-31T16:33:03;17.92;;;9.38;;
50102;SDS011;35993;52.604;10.078;2022-10-31T16:35:36;17.40;;;8.90;;
50102;SDS011;35993;52.604;10.078;2022-10-31T16:38:03;18.67;;;10.23;;
50102;SDS011;35993;52.604;10.078;2022-10-31T16:40:29;19.80;;;10.70;;
50102;SDS011;35993;52.604;10.078;2022-10-31T16:43:01;20.63;;;10.80;;
50102;SDS011;35993;52.604;10.078;2022-10-31T16:45:28;20.58;;;10.80;;
50102;SDS011;35993;52.604;10.078;2022-10-31T16:48:06;22.00;;;10.98;;
50102;SDS011;35993;52.604;10.078;2022-10-31T16:50:42;15.90;;;9.32;;
50102;SDS011;35993;52.604;10.078;2022-10-31T16:53:09;20.13;;;10.45;;
50102;SDS011;35993;52.604;10.078;2022-10-31T16:55:41;20.52;;;10.43;;
50102;SDS011;35993;52.604;10.078;2022-10-31T16:58:13;17.77;;;10.02;;
50102;SDS011;35993;52.604;10.078;2022-10-31T17:00:41;22.58;;;10.73;;
50102;SDS011;35993;52.604;10.078;2022-10-31T17:03:07;21.67;;;11.13;;
50102;SDS011;35993;52.604;10.078;2022-10-31T17:05:33;20.50;;;10.73;;
50102;SDS011;35993;52.604;10.078;2022-10-31T17:07:58;21.17;;;10.93;;
50102;SDS011;35993;52.604;10.078;2022-10-31T17:10:24;26.00;;;10.80;;
50102;SDS011;35993;52.604;10.078;2022-10-31T17:12:51;21.02;;;10.23;;
50102;SDS011;35993;52.604;10.078;2022-10-31T17:15:37;20.97;;;10.93;;
50102;SDS011;35993;52.604;10.078;2022-10-31T17:18:11;20.20;;;10.48;;
50102;SDS011;35993;52.604;10.078;2022-10-31T17:20:37;19.45;;;10.27;;
50102;SDS011;35993;52.604;10.078;2022-10-31T17:23:03;19.20;;;10.63;;
50102;SDS011;35993;52.604;10.078;2022-10-31T17:25:30;19.55;;;10.18;;
50102;SDS011;35993;52.604;10.078;2022-10-31T17:27:57;23.08;;;11.18;;
50102;SDS011;35993;52.604;10.078;2022-10-31T17:30:23;21.17;;;11.10;;
50102;SDS011;35993;52.604;10.078;2022-10-31T17:32:49;19.80;;;11.43;;
50102;SDS011;35993;52.604;10.078;2022-10-31T17:35:16;23.02;;;11.18;;